createdAt,value
2022-10-11T00:01:07.305Z,9.85
2022-10-11T00:03:37.744Z,9.75
2022-10-11T00:06:07.406Z,9.72
2022-10-11T00:08:37.318Z,9.83
2022-10-11T00:11:08.880Z,9.89
2022-10-11T00:13:37.446Z,9.75
2022-10-11T00:16:10.981Z,9.88
2022-10-11T00:18:42.605Z,9.76
2022-10-11T00:21:15.996Z,9.59
2022-10-11T00:23:45.158Z,9.48
2022-10-11T00:26:14.522Z,9.43
2022-10-11T00:28:44.157Z,9.39
2022-10-11T00:31:15.724Z,9.32
2022-10-11T00:33:46.368Z,9.47
2022-10-11T00:36:17.127Z,9.56
2022-10-11T00:38:46.531Z,9.57
2022-10-11T00:41:16.680Z,9.50
2022-10-11T00:43:45.895Z,9.49
2022-10-11T00:46:32.776Z,9.40
2022-10-11T00:49:22.799Z,9.14
2022-10-11T00:51:58.142Z,8.99
2022-10-11T00:54:30.478Z,8.97
2022-10-11T00:57:04.316Z,8.82
2022-10-11T00:59:39.303Z,8.86
2022-10-11T01:02:10.017Z,8.76
2022-10-11T01:04:41.609Z,8.85
2022-10-11T01:07:11.246Z,8.87
2022-10-11T01:09:39.700Z,8.76
2022-10-11T01:12:18.596Z,8.71
2022-10-11T01:15:05.321Z,8.28
2022-10-11T01:17:44.462Z,8.39
2022-10-11T01:20:42.876Z,8.36
2022-10-11T01:23:57.943Z,8.52
2022-10-11T01:26:55.580Z,8.59
2022-10-11T01:29:40.518Z,8.57
2022-10-11T01:32:17.548Z,8.55
2022-10-11T01:34:57.037Z,8.51
2022-10-11T01:37:34.269Z,8.55
2022-10-11T01:40:09.085Z,8.40
2022-10-11T01:42:39.920Z,8.45
2022-10-11T01:45:15.662Z,8.43
2022-10-11T01:47:46.130Z,8.44
2022-10-11T01:50:45.198Z,8.51
2022-10-11T01:53:45.358Z,8.36
2022-10-11T01:56:26.637Z,8.18
2022-10-11T01:59:20.041Z,8.02
2022-10-11T02:02:00.740Z,8.03
2022-10-11T02:04:38.916Z,7.97
2022-10-11T02:07:14.078Z,7.79
2022-10-11T02:09:49.607Z,7.83
2022-10-11T02:12:29.178Z,7.74
2022-10-11T02:14:59.612Z,7.75
2022-10-11T02:17:34.654Z,7.70
2022-10-11T02:20:12.637Z,7.58
2022-10-11T02:22:45.170Z,7.57
2022-10-11T02:25:21.499Z,7.45
2022-10-11T02:27:53.113Z,7.52
2022-10-11T02:30:21.744Z,7.51
2022-10-11T02:32:52.954Z,7.72
2022-10-11T02:35:28.138Z,7.76
2022-10-11T02:38:02.941Z,7.79
2022-10-11T02:40:34.575Z,7.56
2022-10-11T02:43:09.031Z,7.56
2022-10-11T02:45:42.120Z,7.53
2022-10-11T02:48:12.461Z,7.30
2022-10-11T02:50:43.332Z,7.33
2022-10-11T02:53:12.161Z,7.13
2022-10-11T02:55:40.945Z,7.23
2022-10-11T02:58:09.720Z,7.38
2022-10-11T03:00:38.131Z,7.33
2022-10-11T03:03:06.825Z,7.40
2022-10-11T03:05:40.688Z,7.48
2022-10-11T03:08:12.894Z,7.35
2022-10-11T03:10:42.207Z,7.38
2022-10-11T03:13:12.889Z,7.31
2022-10-11T03:15:44.624Z,7.27
2022-10-11T03:18:13.212Z,7.22
2022-10-11T03:20:41.865Z,7.15
2022-10-11T03:23:11.611Z,7.16
2022-10-11T03:25:40.457Z,7.16
2022-10-11T03:28:09.092Z,7.16
2022-10-11T03:30:37.405Z,7.30
2022-10-11T03:33:06.493Z,7.12
2022-10-11T03:35:35.298Z,6.80
2022-10-11T03:38:03.776Z,6.74
2022-10-11T03:40:33.777Z,6.84
2022-10-11T03:43:02.537Z,6.76
2022-10-11T03:45:30.972Z,6.78
2022-10-11T03:47:59.386Z,6.83
2022-10-11T03:50:27.989Z,6.94
2022-10-11T03:52:56.583Z,6.97
2022-10-11T03:55:25.143Z,7.06
2022-10-11T03:57:55.280Z,7.07
2022-10-11T04:00:24.172Z,7.05
2022-10-11T04:02:52.523Z,6.88
2022-10-11T04:05:21.069Z,6.84
2022-10-11T04:07:50.031Z,6.71
2022-10-11T04:10:19.136Z,6.65
2022-10-11T04:12:47.727Z,6.52
2022-10-11T04:15:17.515Z,6.45
2022-10-11T04:17:45.992Z,6.43
2022-10-11T04:20:14.685Z,6.35
2022-10-11T04:22:43.545Z,6.27
2022-10-11T04:25:12.069Z,6.42
2022-10-11T04:27:41.262Z,6.61
2022-10-11T04:30:12.650Z,6.55
2022-10-11T04:32:42.820Z,6.46
2022-10-11T04:35:11.499Z,6.50
2022-10-11T04:37:40.075Z,6.59
2022-10-11T04:40:10.341Z,6.69
2022-10-11T04:42:38.984Z,6.51
2022-10-11T04:45:09.545Z,6.54
2022-10-11T04:47:38.212Z,6.65
2022-10-11T04:50:10.074Z,6.63
2022-10-11T04:52:38.773Z,6.66
2022-10-11T04:55:08.061Z,6.51
2022-10-11T04:57:36.245Z,6.52
2022-10-11T05:00:05.376Z,6.41
2022-10-11T05:02:33.644Z,6.50
2022-10-11T05:05:02.340Z,6.50
2022-10-11T05:07:32.371Z,6.63
2022-10-11T05:10:00.775Z,6.56
2022-10-11T05:12:29.242Z,6.36
2022-10-11T05:14:58.127Z,6.32
2022-10-11T05:17:26.444Z,6.33
2022-10-11T05:19:55.013Z,6.28
2022-10-11T05:22:23.576Z,6.41
2022-10-11T05:24:53.406Z,6.24
2022-10-11T05:27:21.803Z,6.03
2022-10-11T05:29:50.602Z,6.06
2022-10-11T05:32:18.949Z,6.06
2022-10-11T05:34:47.540Z,6.03
2022-10-11T05:37:15.817Z,5.94
2022-10-11T05:39:44.246Z,5.87
2022-10-11T05:42:14.565Z,5.96
2022-10-11T05:44:43.148Z,6.05
2022-10-11T05:47:11.592Z,6.16
2022-10-11T05:49:40.273Z,5.96
2022-10-11T05:52:09.191Z,6.06
2022-10-11T05:54:37.920Z,5.82
2022-10-11T05:57:06.598Z,5.94
2022-10-11T05:59:38.184Z,5.74
2022-10-11T06:02:07.044Z,5.77
2022-10-11T06:04:38.105Z,5.94
2022-10-11T06:07:07.255Z,5.80
2022-10-11T06:09:35.646Z,5.87
2022-10-11T06:12:04.013Z,5.71
2022-10-11T06:14:32.641Z,5.82
2022-10-11T06:17:02.280Z,6.12
2022-10-11T06:19:30.657Z,5.85
2022-10-11T06:21:58.935Z,6.03
2022-10-11T06:24:27.752Z,6.03
2022-10-11T06:26:56.228Z,5.99
2022-10-11T06:29:24.649Z,5.92
2022-10-11T06:31:53.647Z,5.85
2022-10-11T06:34:23.952Z,5.89
2022-10-11T06:36:52.508Z,6.13
2022-10-11T06:39:21.340Z,6.33
2022-10-11T06:41:49.904Z,6.09
2022-10-11T06:44:18.386Z,6.32
2022-10-11T06:46:46.673Z,6.32
2022-10-11T06:49:19.340Z,6.10
2022-10-11T06:51:52.706Z,6.41
2022-10-11T06:54:21.356Z,6.63
2022-10-11T06:56:49.974Z,6.76
2022-10-11T06:59:18.635Z,6.81
2022-10-11T07:01:47.593Z,6.73
2022-10-11T07:04:16.223Z,6.67
2022-10-11T07:06:48.281Z,6.92
2022-10-11T07:09:20.237Z,7.00
2022-10-11T07:11:49.356Z,7.06
2022-10-11T07:14:17.885Z,7.33
2022-10-11T07:16:46.330Z,7.43
2022-10-11T07:19:14.694Z,7.43
2022-10-11T07:21:42.981Z,7.56
2022-10-11T07:24:11.232Z,7.90
2022-10-11T07:26:41.195Z,8.21
2022-10-11T07:29:12.157Z,8.07
2022-10-11T07:31:43.785Z,8.39
2022-10-11T07:34:12.507Z,8.46
2022-10-11T07:36:41.228Z,8.62
2022-10-11T07:39:10.489Z,8.64
2022-10-11T07:41:45.459Z,8.85
2022-10-11T07:44:14.911Z,9.05
2022-10-11T07:46:43.340Z,9.02
2022-10-11T07:49:11.783Z,9.10
2022-10-11T07:51:40.413Z,9.43
2022-10-11T07:54:09.196Z,9.43
2022-10-11T07:56:41.152Z,9.86
2022-10-11T07:59:09.648Z,9.52
2022-10-11T08:01:38.147Z,9.80
2022-10-11T08:04:09.205Z,10.03
2022-10-11T08:06:37.894Z,10.24
2022-10-11T08:09:06.607Z,10.37
2022-10-11T08:11:38.700Z,10.60
2022-10-11T08:14:11.280Z,10.76
2022-10-11T08:16:40.272Z,10.68
2022-10-11T08:19:09.275Z,10.84
2022-10-11T08:21:37.862Z,11.06
2022-10-11T08:24:07.980Z,11.31
2022-10-11T08:26:37.028Z,11.64
2022-10-11T08:29:05.461Z,11.09
2022-10-11T08:31:36.437Z,11.51
2022-10-11T08:34:05.300Z,11.54
2022-10-11T08:36:33.985Z,11.26
2022-10-11T08:39:02.650Z,11.23
2022-10-11T08:41:40.709Z,11.28
2022-10-11T08:45:05.375Z,11.64
2022-10-11T08:47:35.012Z,12.06
2022-10-11T08:50:05.020Z,12.05
2022-10-11T08:52:49.116Z,12.36
2022-10-11T08:55:25.780Z,11.88
2022-10-11T08:57:57.510Z,12.25
2022-10-11T09:00:30.190Z,12.30
2022-10-11T09:03:12.044Z,12.67
2022-10-11T09:05:58.963Z,13.00
2022-10-11T09:08:36.736Z,12.83
2022-10-11T09:11:16.010Z,12.73
2022-10-11T09:14:03.398Z,12.59
2022-10-11T09:16:48.791Z,12.67
2022-10-11T09:19:48.851Z,12.90
2022-10-11T09:22:30.342Z,12.75
2022-10-11T09:25:18.516Z,13.11
2022-10-11T09:28:03.279Z,13.34
2022-10-11T09:30:34.157Z,13.52
2022-10-11T09:33:14.528Z,13.30
2022-10-11T09:35:48.521Z,13.33
2022-10-11T09:38:32.469Z,13.44
2022-10-11T09:41:11.154Z,13.83
2022-10-11T09:43:40.131Z,13.73
2022-10-11T09:46:22.345Z,14.00
2022-10-11T09:48:51.471Z,14.29
2022-10-11T09:51:25.296Z,14.40
2022-10-11T09:53:58.404Z,14.37
2022-10-11T09:56:29.908Z,14.39
2022-10-11T09:59:25.746Z,14.32
2022-10-11T10:02:23.174Z,14.21
2022-10-11T10:05:02.623Z,13.90
2022-10-11T10:07:35.262Z,14.29
2022-10-11T10:10:31.201Z,13.30
2022-10-11T10:13:03.827Z,13.88
2022-10-11T10:15:33.548Z,14.56
2022-10-11T10:18:03.380Z,14.93
2022-10-11T10:20:35.219Z,15.39
2022-10-11T10:23:22.197Z,15.84
2022-10-11T10:25:51.801Z,15.55
2022-10-11T10:28:24.754Z,15.85
2022-10-11T10:30:56.300Z,15.56
2022-10-11T10:33:27.610Z,15.53
2022-10-11T10:36:05.719Z,15.76
2022-10-11T10:38:41.320Z,15.97
2022-10-11T10:41:13.921Z,15.96
2022-10-11T10:43:46.566Z,16.26
2022-10-11T10:46:43.171Z,16.28
2022-10-11T10:52:48.450Z,16.12
2022-10-11T10:55:29.164Z,15.79
2022-10-11T10:58:18.822Z,15.23
2022-10-11T11:00:50.553Z,15.41
2022-10-11T11:03:27.345Z,15.68
2022-10-11T11:06:03.429Z,15.14
2022-10-11T11:09:06.781Z,14.40
2022-10-11T11:11:56.397Z,14.58
2022-10-11T11:14:37.347Z,15.01
2022-10-11T11:17:19.422Z,15.29
2022-10-11T11:20:03.927Z,15.83
2022-10-11T11:22:46.581Z,15.92
2022-10-11T11:25:31.782Z,15.81
2022-10-11T11:28:19.959Z,15.97
2022-10-11T11:31:01.352Z,16.19
2022-10-11T11:33:48.619Z,15.82
2022-10-11T11:36:27.422Z,16.11
2022-10-11T11:39:02.469Z,16.08
2022-10-11T11:41:38.518Z,16.11
2022-10-11T11:44:17.165Z,15.51
2022-10-11T11:46:51.411Z,15.19
2022-10-11T11:49:25.001Z,15.12
2022-10-11T11:51:54.066Z,15.81
2022-10-11T11:54:37.713Z,16.00
2022-10-11T11:57:16.326Z,15.69
2022-10-11T11:59:51.957Z,15.85
2022-10-11T12:02:43.365Z,15.79
2022-10-11T12:05:14.836Z,16.15
2022-10-11T12:07:59.008Z,16.26
2022-10-11T12:10:35.634Z,15.82
2022-10-11T12:13:22.335Z,16.15
2022-10-11T12:16:10.991Z,16.10
2022-10-11T12:19:00.724Z,15.54
2022-10-11T12:21:33.475Z,15.83
2022-10-11T12:24:11.060Z,16.01
2022-10-11T12:26:43.537Z,15.99
2022-10-11T12:29:49.020Z,15.86
2022-10-11T12:32:53.212Z,16.11
2022-10-11T12:36:07.354Z,16.06
2022-10-11T12:38:39.763Z,15.80
2022-10-11T12:41:53.443Z,15.85
2022-10-11T12:44:26.584Z,16.03
2022-10-11T12:47:34.009Z,15.83
2022-10-11T12:50:20.945Z,15.87
2022-10-11T12:53:01.030Z,15.98
2022-10-11T12:55:52.370Z,16.21
2022-10-11T12:58:30.980Z,16.52
2022-10-11T13:01:25.696Z,16.22
2022-10-11T13:04:04.073Z,16.22
2022-10-11T13:06:45.331Z,15.91
2022-10-11T13:09:22.305Z,16.26
2022-10-11T13:11:55.005Z,16.27
2022-10-11T13:14:25.986Z,16.32
2022-10-11T13:17:09.260Z,16.93
2022-10-11T13:22:30.295Z,16.05
2022-10-11T13:25:00.107Z,16.02
2022-10-11T13:27:28.989Z,16.42
2022-10-11T13:30:02.336Z,15.99
2022-10-11T13:32:33.751Z,16.45
2022-10-11T13:35:05.909Z,16.53
2022-10-11T13:37:45.321Z,16.48
2022-10-11T13:40:16.545Z,16.11
2022-10-11T13:42:45.670Z,16.96
2022-10-11T13:45:16.323Z,17.32
2022-10-11T13:47:45.011Z,17.19
2022-10-11T13:50:30.445Z,16.72
2022-10-11T13:53:03.350Z,16.83
2022-10-11T13:55:35.190Z,16.49
2022-10-11T13:58:16.268Z,16.55
2022-10-11T14:00:56.423Z,16.39
2022-10-11T14:03:34.684Z,16.30
2022-10-11T14:06:04.126Z,16.23
2022-10-11T14:08:39.052Z,16.61
2022-10-11T14:11:09.617Z,16.61
2022-10-11T14:13:40.781Z,16.60
2022-10-11T14:16:15.110Z,16.43
2022-10-11T14:18:47.695Z,16.68
2022-10-11T14:21:31.505Z,16.37
2022-10-11T14:24:04.943Z,16.16
2022-10-11T14:26:37.888Z,16.42
2022-10-11T14:29:10.371Z,16.62
2022-10-11T14:31:41.957Z,16.03
2022-10-11T14:34:19.331Z,15.93
2022-10-11T14:36:50.617Z,16.39
2022-10-11T14:39:23.176Z,16.31
2022-10-11T14:41:52.124Z,16.16
2022-10-11T14:44:22.772Z,16.40
2022-10-11T14:46:54.691Z,16.54
2022-10-11T14:49:27.318Z,16.41
2022-10-11T14:51:57.682Z,16.21
2022-10-11T14:54:30.310Z,16.24
2022-10-11T14:57:00.917Z,16.38
2022-10-11T14:59:34.629Z,16.30
2022-10-11T15:02:03.913Z,16.05
2022-10-11T15:04:32.805Z,16.12
2022-10-11T15:07:01.517Z,15.94
2022-10-11T15:09:32.432Z,15.96
2022-10-11T15:12:00.908Z,16.41
2022-10-11T15:14:29.475Z,16.24
2022-10-11T15:16:57.778Z,16.20
2022-10-11T15:19:27.140Z,16.02
2022-10-11T15:21:55.766Z,15.96
2022-10-11T15:24:24.352Z,16.03
2022-10-11T15:26:54.393Z,15.80
2022-10-11T15:29:24.187Z,15.47
2022-10-11T15:31:52.554Z,15.40
2022-10-11T15:34:20.838Z,15.12
2022-10-11T15:36:49.978Z,15.13
2022-10-11T15:39:28.033Z,15.20
2022-10-11T15:41:59.002Z,15.08
2022-10-11T15:44:27.644Z,15.08
2022-10-11T15:46:55.889Z,15.11
2022-10-11T15:49:24.145Z,15.02
2022-10-11T15:51:52.957Z,15.06
2022-10-11T15:54:21.652Z,15.10
2022-10-11T15:56:50.254Z,14.69
2022-10-11T15:59:20.342Z,14.77
2022-10-11T16:01:48.768Z,14.69
2022-10-11T16:04:17.201Z,14.65
2022-10-11T16:06:45.614Z,14.74
2022-10-11T16:09:13.854Z,14.73
2022-10-11T16:11:42.472Z,14.74
2022-10-11T16:14:10.690Z,14.62
2022-10-11T16:16:40.733Z,14.60
2022-10-11T16:19:09.625Z,14.60
2022-10-11T16:21:37.992Z,14.53
2022-10-11T16:24:06.576Z,14.38
2022-10-11T16:26:35.087Z,14.33
2022-10-11T16:29:03.584Z,14.30
2022-10-11T16:31:32.057Z,14.13
2022-10-11T16:34:01.845Z,14.13
2022-10-11T16:36:35.694Z,13.99
2022-10-11T16:39:09.812Z,13.98
2022-10-11T16:41:38.827Z,13.85
2022-10-11T16:44:08.151Z,13.74
2022-10-11T16:46:36.484Z,13.58
2022-10-11T16:49:06.495Z,13.45
2022-10-11T16:51:35.531Z,13.35
2022-10-11T16:54:04.087Z,13.33
2022-10-11T16:56:37.331Z,13.31
2022-10-11T16:59:09.180Z,12.97
2022-10-11T17:01:39.549Z,12.97
2022-10-11T17:04:11.053Z,12.74
2022-10-11T17:06:40.353Z,12.52
2022-10-11T17:09:09.560Z,12.45
2022-10-11T17:11:38.824Z,12.41
2022-10-11T17:14:07.686Z,12.50
2022-10-11T17:16:37.408Z,12.43
2022-10-11T17:19:06.237Z,12.46
2022-10-11T17:21:36.095Z,12.35
2022-10-11T17:24:05.044Z,12.26
2022-10-11T17:26:34.400Z,12.29
2022-10-11T17:29:03.422Z,12.32
2022-10-11T17:31:31.900Z,12.31
2022-10-11T17:34:02.138Z,12.04
2022-10-11T17:36:34.550Z,11.89
2022-10-11T17:39:09.554Z,11.82
2022-10-11T17:41:38.272Z,11.63
2022-10-11T17:44:06.582Z,11.33
2022-10-11T17:46:35.271Z,11.29
2022-10-11T17:49:06.873Z,11.12
2022-10-11T17:51:37.206Z,11.11
2022-10-11T17:54:12.417Z,10.95
2022-10-11T17:56:42.479Z,10.96
2022-10-11T17:59:18.241Z,11.08
2022-10-11T18:01:46.956Z,10.94
2022-10-11T18:04:17.524Z,10.72
2022-10-11T18:06:48.436Z,10.71
2022-10-11T18:09:20.025Z,10.62
2022-10-11T18:11:49.450Z,10.58
2022-10-11T18:14:18.245Z,10.59
2022-10-11T18:16:48.335Z,10.43
2022-10-11T18:19:17.837Z,10.41
2022-10-11T18:21:48.837Z,10.52
2022-10-11T18:24:19.713Z,10.40
2022-10-11T18:26:49.081Z,10.35
2022-10-11T18:29:18.414Z,10.20
2022-10-11T18:31:47.500Z,10.06
2022-10-11T18:34:16.652Z,10.01
2022-10-11T18:36:46.445Z,9.95
2022-10-11T18:39:16.550Z,9.97
2022-10-11T18:41:46.291Z,9.90
2022-10-11T18:44:17.111Z,9.85
2022-10-11T18:46:47.106Z,9.92
2022-10-11T18:49:15.921Z,10.14
2022-10-11T18:51:46.422Z,9.99
2022-10-11T18:54:18.522Z,10.00
2022-10-11T18:56:51.767Z,10.09
2022-10-11T18:59:20.393Z,10.07
2022-10-11T19:01:52.132Z,10.10
2022-10-11T19:04:21.100Z,10.02
2022-10-11T19:06:51.375Z,10.06
2022-10-11T19:09:22.590Z,10.07
2022-10-11T19:11:55.485Z,10.04
2022-10-11T19:14:28.346Z,9.89
2022-10-11T19:16:56.859Z,9.77
2022-10-11T19:19:28.907Z,9.58
2022-10-11T19:21:57.763Z,9.34
2022-10-11T19:24:30.042Z,9.23
2022-10-11T19:27:02.831Z,9.25
2022-10-11T19:29:33.089Z,9.22
2022-10-11T19:32:04.732Z,9.30
2022-10-11T19:34:33.733Z,9.15
2022-10-11T19:37:04.276Z,9.08
2022-10-11T19:39:33.309Z,9.00
2022-10-11T19:42:04.850Z,8.96
2022-10-11T19:44:37.134Z,8.90
2022-10-11T19:47:10.102Z,8.83
2022-10-11T19:49:38.689Z,8.72
2022-10-11T19:52:09.358Z,8.94
2022-10-11T19:54:37.641Z,8.73
2022-10-11T19:57:08.782Z,8.40
2022-10-11T19:59:37.073Z,8.20
2022-10-11T20:02:05.683Z,8.21
2022-10-11T20:04:51.685Z,8.23
2022-10-11T20:07:21.296Z,8.55
2022-10-11T20:09:49.659Z,8.58
2022-10-11T20:12:19.508Z,8.36
2022-10-11T20:14:47.849Z,8.35
2022-10-11T20:17:16.511Z,8.22
2022-10-11T20:19:45.375Z,8.09
2022-10-11T20:22:13.695Z,8.22
2022-10-11T20:24:42.202Z,8.44
2022-10-11T20:27:10.844Z,8.57
2022-10-11T20:29:40.591Z,8.54
2022-10-11T20:32:08.911Z,8.47
2022-10-11T20:34:39.471Z,8.10
2022-10-11T20:37:07.939Z,8.02
2022-10-11T20:39:36.461Z,7.98
2022-10-11T20:42:05.165Z,7.82
2022-10-11T20:44:35.226Z,7.97
2022-10-11T20:47:05.060Z,8.17
2022-10-11T20:49:34.299Z,8.22
2022-10-11T20:52:02.916Z,8.28
2022-10-11T20:54:34.190Z,8.27
2022-10-11T20:57:02.995Z,8.15
2022-10-11T20:59:32.020Z,7.78
2022-10-11T21:02:00.803Z,7.85
2022-10-11T21:04:31.239Z,7.88
2022-10-11T21:06:59.807Z,7.91
2022-10-11T21:09:28.273Z,8.13
2022-10-11T21:11:56.853Z,8.16
2022-10-11T21:14:27.959Z,8.25
2022-10-11T21:16:57.414Z,8.29
2022-10-11T21:19:26.228Z,8.35
2022-10-11T21:21:56.498Z,8.19
2022-10-11T21:24:25.161Z,7.83
2022-10-11T21:26:59.593Z,7.68
2022-10-11T21:29:28.796Z,7.50
2022-10-11T21:31:57.465Z,7.50
2022-10-11T21:34:26.142Z,7.41
2022-10-11T21:36:56.134Z,7.56
2022-10-11T21:39:24.697Z,7.42
2022-10-11T21:41:53.218Z,7.61
2022-10-11T21:44:22.873Z,7.71
2022-10-11T21:47:06.469Z,7.59
2022-10-11T21:49:36.339Z,7.42
2022-10-11T21:52:06.605Z,7.54
2022-10-11T21:54:35.112Z,7.54
2022-10-11T21:57:03.671Z,7.70
2022-10-11T21:59:32.960Z,7.58
2022-10-11T22:02:02.281Z,7.54
2022-10-11T22:04:30.947Z,7.53
2022-10-11T22:06:59.507Z,7.37
2022-10-11T22:09:29.923Z,7.21
2022-10-11T22:11:58.504Z,7.26
2022-10-11T22:14:27.224Z,7.16
2022-10-11T22:16:55.773Z,7.22
2022-10-11T22:19:24.764Z,7.15
2022-10-11T22:21:53.573Z,6.95
2022-10-11T22:24:22.174Z,7.21
2022-10-11T22:26:52.494Z,6.94
2022-10-11T22:29:20.937Z,7.10
2022-10-11T22:31:49.227Z,7.06
2022-10-11T22:34:17.697Z,7.03
2022-10-11T22:36:46.047Z,7.13
2022-10-11T22:39:14.279Z,7.10
2022-10-11T22:41:42.895Z,7.13
2022-10-11T22:44:12.681Z,7.07
2022-10-11T22:46:41.043Z,6.81
2022-10-11T22:49:09.497Z,6.85
2022-10-11T22:51:38.193Z,6.80
2022-10-11T22:54:07.468Z,6.48
2022-10-11T22:56:35.795Z,6.49
2022-10-11T22:59:04.672Z,6.51
2022-10-11T23:01:34.807Z,6.48
2022-10-11T23:04:03.706Z,6.41
2022-10-11T23:06:32.063Z,6.15
2022-10-11T23:09:00.580Z,6.36
2022-10-11T23:11:29.245Z,6.23
2022-10-11T23:13:57.867Z,6.24
2022-10-11T23:16:26.822Z,6.34
2022-10-11T23:18:56.741Z,6.53
2022-10-11T23:21:25.104Z,6.54
2022-10-11T23:23:54.802Z,6.62
2022-10-11T23:26:23.107Z,6.59
2022-10-11T23:28:57.254Z,6.50
2022-10-11T23:31:26.115Z,6.59
2022-10-11T23:33:56.782Z,6.67
2022-10-11T23:36:28.263Z,6.27
2022-10-11T23:38:59.320Z,5.83
2022-10-11T23:41:30.700Z,6.04
2022-10-11T23:43:59.538Z,5.81
2022-10-11T23:46:27.984Z,5.84
2022-10-11T23:48:58.087Z,5.96
2022-10-11T23:51:26.829Z,5.76
2022-10-11T23:53:55.321Z,5.57
2022-10-11T23:56:24.179Z,5.73
2022-10-11T23:58:53.765Z,5.88
